sensor_id;sensor_type;location;lat;lon;timestamp;temperature;humidity
11615;DHT22;5863;52.832;4.758;2023-02-08T00:01:07;1.30;99.90
11615;DHT22;5863;52.832;4.758;2023-02-08T00:03:34;1.20;99.90
11615;DHT22;5863;52.832;4.758;2023-02-08T00:06:01;1.20;99.90
11615;DHT22;5863;52.832;4.758;2023-02-08T00:08:28;1.10;99.90
11615;DHT22;5863;52.832;4.758;2023-02-08T00:10:55;1.10;99.90
11615;DHT22;5863;52.832;4.758;2023-02-08T00:13:22;1.10;99.90
11615;DHT22;5863;52.832;4.758;2023-02-08T00:15:51;1.10;99.90
11615;DHT22;5863;52.832;4.758;2023-02-08T00:18:20;1.10;99.90
11615;DHT22;5863;52.832;4.758;2023-02-08T00:20:47;1.10;99.90
11615;DHT22;5863;52.832;4.758;2023-02-08T00:23:14;1.10;99.90
11615;DHT22;5863;52.832;4.758;2023-02-08T00:25:41;1.00;99.90
11615;DHT22;5863;52.832;4.758;2023-02-08T00:28:16;1.00;99.90
11615;DHT22;5863;52.832;4.758;2023-02-08T00:30:43;1.10;99.90
11615;DHT22;5863;52.832;4.758;2023-02-08T00:33:11;1.00;99.90
11615;DHT22;5863;52.832;4.758;2023-02-08T00:35:42;1.00;99.90
11615;DHT22;5863;52.832;4.758;2023-02-08T00:38:09;1.00;99.90
11615;DHT22;5863;52.832;4.758;2023-02-08T00:40:36;1.10;99.90
11615;DHT22;5863;52.832;4.758;2023-02-08T00:43:02;1.10;99.90
11615;DHT22;5863;52.832;4.758;2023-02-08T00:45:30;1.10;99.90
11615;DHT22;5863;52.832;4.758;2023-02-08T00:47:57;1.10;99.90
11615;DHT22;5863;52.832;4.758;2023-02-08T00:50:24;1.10;99.90
11615;DHT22;5863;52.832;4.758;2023-02-08T00:52:52;1.10;99.90
11615;DHT22;5863;52.832;4.758;2023-02-08T00:55:19;1.10;99.90
11615;DHT22;5863;52.832;4.758;2023-02-08T00:57:45;1.10;99.90
11615;DHT22;5863;52.832;4.758;2023-02-08T01:00:12;1.10;99.90
11615;DHT22;5863;52.832;4.758;2023-02-08T01:02:39;1.00;99.90
11615;DHT22;5863;52.832;4.758;2023-02-08T01:05:06;1.10;99.90
11615;DHT22;5863;52.832;4.758;2023-02-08T01:07:34;1.10;99.90
11615;DHT22;5863;52.832;4.758;2023-02-08T01:10:03;1.00;99.90
11615;DHT22;5863;52.832;4.758;2023-02-08T01:12:29;1.00;99.90
11615;DHT22;5863;52.832;4.758;2023-02-08T01:14:56;1.00;99.90
11615;DHT22;5863;52.832;4.758;2023-02-08T01:17:23;1.10;99.90
11615;DHT22;5863;52.832;4.758;2023-02-08T01:19:49;1.00;99.90
11615;DHT22;5863;52.832;4.758;2023-02-08T01:22:16;0.90;99.90
11615;DHT22;5863;52.832;4.758;2023-02-08T01:24:43;0.70;99.90
11615;DHT22;5863;52.832;4.758;2023-02-08T01:27:11;0.80;99.90
11615;DHT22;5863;52.832;4.758;2023-02-08T01:29:40;0.90;99.90
11615;DHT22;5863;52.832;4.758;2023-02-08T01:32:07;0.90;99.90
11615;DHT22;5863;52.832;4.758;2023-02-08T01:34:34;0.90;99.90
11615;DHT22;5863;52.832;4.758;2023-02-08T01:37:00;0.90;99.90
11615;DHT22;5863;52.832;4.758;2023-02-08T01:39:27;0.90;99.90
11615;DHT22;5863;52.832;4.758;2023-02-08T01:41:54;0.90;99.90
11615;DHT22;5863;52.832;4.758;2023-02-08T01:47:26;0.80;99.90
11615;DHT22;5863;52.832;4.758;2023-02-08T01:49:53;0.80;99.90
11615;DHT22;5863;52.832;4.758;2023-02-08T01:52:22;0.90;99.90
11615;DHT22;5863;52.832;4.758;2023-02-08T01:54:55;0.90;99.90
11615;DHT22;5863;52.832;4.758;2023-02-08T01:57:26;0.90;99.90
11615;DHT22;5863;52.832;4.758;2023-02-08T01:59:56;0.80;99.90
11615;DHT22;5863;52.832;4.758;2023-02-08T02:02:25;0.90;99.90
11615;DHT22;5863;52.832;4.758;2023-02-08T02:04:52;0.90;99.90
11615;DHT22;5863;52.832;4.758;2023-02-08T02:07:21;0.90;99.90
11615;DHT22;5863;52.832;4.758;2023-02-08T02:09:54;0.80;99.90
11615;DHT22;5863;52.832;4.758;2023-02-08T02:12:23;0.90;99.90
11615;DHT22;5863;52.832;4.758;2023-02-08T02:14:50;0.90;99.90
11615;DHT22;5863;52.832;4.758;2023-02-08T02:17:18;0.80;99.90
11615;DHT22;5863;52.832;4.758;2023-02-08T02:19:51;0.70;99.90
11615;DHT22;5863;52.832;4.758;2023-02-08T02:22:42;0.70;99.90
11615;DHT22;5863;52.832;4.758;2023-02-08T02:25:35;0.70;99.90
11615;DHT22;5863;52.832;4.758;2023-02-08T02:31:30;0.70;99.90
11615;DHT22;5863;52.832;4.758;2023-02-08T02:34:04;0.60;99.90
11615;DHT22;5863;52.832;4.758;2023-02-08T02:36:38;0.80;99.90
11615;DHT22;5863;52.832;4.758;2023-02-08T02:39:16;0.80;99.90
11615;DHT22;5863;52.832;4.758;2023-02-08T02:41:51;0.80;99.90
11615;DHT22;5863;52.832;4.758;2023-02-08T02:44:52;0.80;99.90
11615;DHT22;5863;52.832;4.758;2023-02-08T02:47:30;0.70;99.90
11615;DHT22;5863;52.832;4.758;2023-02-08T02:50:03;0.70;99.90
11615;DHT22;5863;52.832;4.758;2023-02-08T02:52:38;0.60;99.90
11615;DHT22;5863;52.832;4.758;2023-02-08T02:55:10;0.60;99.90
11615;DHT22;5863;52.832;4.758;2023-02-08T02:57:41;0.60;99.90
11615;DHT22;5863;52.832;4.758;2023-02-08T03:00:10;0.60;99.90
11615;DHT22;5863;52.832;4.758;2023-02-08T03:02:40;0.70;99.90
11615;DHT22;5863;52.832;4.758;2023-02-08T03:05:11;0.70;99.90
11615;DHT22;5863;52.832;4.758;2023-02-08T03:08:14;0.60;99.90
11615;DHT22;5863;52.832;4.758;2023-02-08T03:11:06;0.50;99.90
11615;DHT22;5863;52.832;4.758;2023-02-08T03:13:58;0.60;99.90
11615;DHT22;5863;52.832;4.758;2023-02-08T03:16:31;0.40;99.90
11615;DHT22;5863;52.832;4.758;2023-02-08T03:19:08;0.40;99.90
11615;DHT22;5863;52.832;4.758;2023-02-08T03:21:41;0.50;99.90
11615;DHT22;5863;52.832;4.758;2023-02-08T03:24:26;0.50;99.90
11615;DHT22;5863;52.832;4.758;2023-02-08T03:26:58;0.50;99.90
11615;DHT22;5863;52.832;4.758;2023-02-08T03:29:36;0.50;99.90
11615;DHT22;5863;52.832;4.758;2023-02-08T03:32:08;0.50;99.90
11615;DHT22;5863;52.832;4.758;2023-02-08T03:34:42;0.40;99.90
11615;DHT22;5863;52.832;4.758;2023-02-08T03:37:14;0.50;99.90
11615;DHT22;5863;52.832;4.758;2023-02-08T03:39:46;0.50;99.90
11615;DHT22;5863;52.832;4.758;2023-02-08T03:42:18;0.60;99.90
11615;DHT22;5863;52.832;4.758;2023-02-08T03:44:51;0.60;99.90
11615;DHT22;5863;52.832;4.758;2023-02-08T03:47:21;0.60;99.90
11615;DHT22;5863;52.832;4.758;2023-02-08T03:49:52;0.60;99.90
11615;DHT22;5863;52.832;4.758;2023-02-08T03:52:21;0.60;99.90
11615;DHT22;5863;52.832;4.758;2023-02-08T03:54:50;0.50;99.90
11615;DHT22;5863;52.832;4.758;2023-02-08T03:57:21;0.40;99.90
11615;DHT22;5863;52.832;4.758;2023-02-08T03:59:54;0.30;99.90
11615;DHT22;5863;52.832;4.758;2023-02-08T04:02:25;0.20;99.90
11615;DHT22;5863;52.832;4.758;2023-02-08T04:04:55;0.30;99.90
11615;DHT22;5863;52.832;4.758;2023-02-08T04:07:22;0.40;99.90
11615;DHT22;5863;52.832;4.758;2023-02-08T04:09:49;0.40;99.90
11615;DHT22;5863;52.832;4.758;2023-02-08T04:12:16;0.40;99.90
11615;DHT22;5863;52.832;4.758;2023-02-08T04:14:43;0.30;99.90
11615;DHT22;5863;52.832;4.758;2023-02-08T04:17:09;0.30;99.90
11615;DHT22;5863;52.832;4.758;2023-02-08T04:19:36;0.40;99.90
11615;DHT22;5863;52.832;4.758;2023-02-08T04:22:04;0.60;99.90
11615;DHT22;5863;52.832;4.758;2023-02-08T04:24:31;0.60;99.90
11615;DHT22;5863;52.832;4.758;2023-02-08T04:26:58;0.50;99.90
11615;DHT22;5863;52.832;4.758;2023-02-08T04:29:24;0.30;99.90
11615;DHT22;5863;52.832;4.758;2023-02-08T04:31:51;0.30;99.90
11615;DHT22;5863;52.832;4.758;2023-02-08T04:34:18;0.30;99.90
11615;DHT22;5863;52.832;4.758;2023-02-08T04:36:44;0.40;99.90
11615;DHT22;5863;52.832;4.758;2023-02-08T04:39:12;0.40;99.90
11615;DHT22;5863;52.832;4.758;2023-02-08T04:41:40;0.30;99.90
11615;DHT22;5863;52.832;4.758;2023-02-08T04:44:07;0.40;99.90
11615;DHT22;5863;52.832;4.758;2023-02-08T04:46:33;0.40;99.90
11615;DHT22;5863;52.832;4.758;2023-02-08T04:49:00;0.30;99.90
11615;DHT22;5863;52.832;4.758;2023-02-08T04:51:27;0.30;99.90
11615;DHT22;5863;52.832;4.758;2023-02-08T04:53:53;0.30;99.90
11615;DHT22;5863;52.832;4.758;2023-02-08T04:56:21;0.30;99.90
11615;DHT22;5863;52.832;4.758;2023-02-08T04:58:48;0.30;99.90
11615;DHT22;5863;52.832;4.758;2023-02-08T05:01:15;0.30;99.90
11615;DHT22;5863;52.832;4.758;2023-02-08T05:03:42;0.30;99.90
11615;DHT22;5863;52.832;4.758;2023-02-08T05:06:08;0.40;99.90
11615;DHT22;5863;52.832;4.758;2023-02-08T05:08:35;0.50;99.90
11615;DHT22;5863;52.832;4.758;2023-02-08T05:11:02;0.40;99.90
11615;DHT22;5863;52.832;4.758;2023-02-08T05:13:30;0.30;99.90
11615;DHT22;5863;52.832;4.758;2023-02-08T05:15:56;0.20;99.90
11615;DHT22;5863;52.832;4.758;2023-02-08T05:18:23;0.30;99.90
11615;DHT22;5863;52.832;4.758;2023-02-08T05:20:54;0.30;99.90
11615;DHT22;5863;52.832;4.758;2023-02-08T05:23:21;0.40;99.90
11615;DHT22;5863;52.832;4.758;2023-02-08T05:25:47;0.40;99.90
11615;DHT22;5863;52.832;4.758;2023-02-08T05:28:15;0.40;99.90
11615;DHT22;5863;52.832;4.758;2023-02-08T05:30:43;0.40;99.90
11615;DHT22;5863;52.832;4.758;2023-02-08T05:33:09;0.30;99.90
11615;DHT22;5863;52.832;4.758;2023-02-08T05:35:36;0.40;99.90
11615;DHT22;5863;52.832;4.758;2023-02-08T05:38:03;0.40;99.90
11615;DHT22;5863;52.832;4.758;2023-02-08T05:40:30;0.40;99.90
11615;DHT22;5863;52.832;4.758;2023-02-08T05:42:56;0.50;99.90
11615;DHT22;5863;52.832;4.758;2023-02-08T05:45:23;0.50;99.90
11615;DHT22;5863;52.832;4.758;2023-02-08T05:47:51;0.40;99.90
11615;DHT22;5863;52.832;4.758;2023-02-08T05:50:18;0.40;99.90
11615;DHT22;5863;52.832;4.758;2023-02-08T05:52:44;0.40;99.90
11615;DHT22;5863;52.832;4.758;2023-02-08T05:55:11;0.40;99.90
11615;DHT22;5863;52.832;4.758;2023-02-08T05:57:38;0.30;99.90
11615;DHT22;5863;52.832;4.758;2023-02-08T06:00:05;0.30;99.90
11615;DHT22;5863;52.832;4.758;2023-02-08T06:02:32;0.30;99.90
11615;DHT22;5863;52.832;4.758;2023-02-08T06:05:00;0.40;99.90
11615;DHT22;5863;52.832;4.758;2023-02-08T06:07:27;0.40;99.90
11615;DHT22;5863;52.832;4.758;2023-02-08T06:09:54;0.40;99.90
11615;DHT22;5863;52.832;4.758;2023-02-08T06:12:20;0.30;99.90
11615;DHT22;5863;52.832;4.758;2023-02-08T06:14:47;0.20;99.90
11615;DHT22;5863;52.832;4.758;2023-02-08T06:17:15;0.10;99.90
11615;DHT22;5863;52.832;4.758;2023-02-08T06:19:42;0.00;99.90
11615;DHT22;5863;52.832;4.758;2023-02-08T06:22:10;0.00;99.90
11615;DHT22;5863;52.832;4.758;2023-02-08T06:24:36;-0.10;99.90
11615;DHT22;5863;52.832;4.758;2023-02-08T06:27:03;0.10;99.90
11615;DHT22;5863;52.832;4.758;2023-02-08T06:29:30;0.00;99.90
11615;DHT22;5863;52.832;4.758;2023-02-08T06:31:57;-0.10;99.90
11615;DHT22;5863;52.832;4.758;2023-02-08T06:34:24;-0.10;99.90
11615;DHT22;5863;52.832;4.758;2023-02-08T06:36:50;-0.10;99.90
11615;DHT22;5863;52.832;4.758;2023-02-08T06:39:18;-0.10;99.90
11615;DHT22;5863;52.832;4.758;2023-02-08T06:41:45;-0.20;99.90
11615;DHT22;5863;52.832;4.758;2023-02-08T06:44:13;-0.20;99.90
11615;DHT22;5863;52.832;4.758;2023-02-08T06:46:40;-0.10;99.90
11615;DHT22;5863;52.832;4.758;2023-02-08T06:49:07;-0.10;99.90
11615;DHT22;5863;52.832;4.758;2023-02-08T06:51:33;0.00;99.90
11615;DHT22;5863;52.832;4.758;2023-02-08T06:54:00;0.00;99.90
11615;DHT22;5863;52.832;4.758;2023-02-08T06:56:30;0.20;99.90
11615;DHT22;5863;52.832;4.758;2023-02-08T06:58:57;0.10;99.90
11615;DHT22;5863;52.832;4.758;2023-02-08T07:01:24;0.10;99.90
11615;DHT22;5863;52.832;4.758;2023-02-08T07:03:50;0.10;99.90
11615;DHT22;5863;52.832;4.758;2023-02-08T07:06:18;0.10;99.90
11615;DHT22;5863;52.832;4.758;2023-02-08T07:08:46;0.10;99.90
11615;DHT22;5863;52.832;4.758;2023-02-08T07:11:15;0.20;99.90
11615;DHT22;5863;52.832;4.758;2023-02-08T07:13:47;0.20;99.90
11615;DHT22;5863;52.832;4.758;2023-02-08T07:16:14;0.20;99.90
11615;DHT22;5863;52.832;4.758;2023-02-08T07:18:41;0.10;99.90
11615;DHT22;5863;52.832;4.758;2023-02-08T07:21:07;0.10;99.90
11615;DHT22;5863;52.832;4.758;2023-02-08T07:23:35;0.10;99.90
11615;DHT22;5863;52.832;4.758;2023-02-08T07:26:04;0.10;99.90
11615;DHT22;5863;52.832;4.758;2023-02-08T07:28:33;0.10;99.90
11615;DHT22;5863;52.832;4.758;2023-02-08T07:31:05;0.20;99.90
11615;DHT22;5863;52.832;4.758;2023-02-08T07:33:32;0.10;99.90
11615;DHT22;5863;52.832;4.758;2023-02-08T07:35:59;0.20;99.90
11615;DHT22;5863;52.832;4.758;2023-02-08T07:38:26;0.30;99.90
11615;DHT22;5863;52.832;4.758;2023-02-08T07:40:59;0.30;99.90
11615;DHT22;5863;52.832;4.758;2023-02-08T07:43:26;0.30;99.90
11615;DHT22;5863;52.832;4.758;2023-02-08T07:45:52;0.30;99.90
11615;DHT22;5863;52.832;4.758;2023-02-08T07:48:20;0.30;99.90
11615;DHT22;5863;52.832;4.758;2023-02-08T07:50:47;0.40;99.90
11615;DHT22;5863;52.832;4.758;2023-02-08T07:53:14;0.40;99.90
11615;DHT22;5863;52.832;4.758;2023-02-08T07:55:43;0.60;99.90
11615;DHT22;5863;52.832;4.758;2023-02-08T07:58:10;0.60;99.90
11615;DHT22;5863;52.832;4.758;2023-02-08T08:00:36;0.60;99.90
11615;DHT22;5863;52.832;4.758;2023-02-08T08:03:03;0.60;99.90
11615;DHT22;5863;52.832;4.758;2023-02-08T08:05:32;0.60;99.90
11615;DHT22;5863;52.832;4.758;2023-02-08T08:07:59;0.70;99.90
11615;DHT22;5863;52.832;4.758;2023-02-08T08:10:26;0.80;99.90
11615;DHT22;5863;52.832;4.758;2023-02-08T08:12:52;0.90;99.90
11615;DHT22;5863;52.832;4.758;2023-02-08T08:15:19;0.90;99.90
11615;DHT22;5863;52.832;4.758;2023-02-08T08:17:47;1.00;99.90
11615;DHT22;5863;52.832;4.758;2023-02-08T08:20:13;1.10;99.90
11615;DHT22;5863;52.832;4.758;2023-02-08T08:22:41;1.10;99.90
11615;DHT22;5863;52.832;4.758;2023-02-08T08:25:08;1.20;99.90
11615;DHT22;5863;52.832;4.758;2023-02-08T08:27:35;1.30;99.90
11615;DHT22;5863;52.832;4.758;2023-02-08T08:30:02;1.30;99.90
11615;DHT22;5863;52.832;4.758;2023-02-08T08:32:29;1.40;99.90
11615;DHT22;5863;52.832;4.758;2023-02-08T08:34:56;1.50;99.90
11615;DHT22;5863;52.832;4.758;2023-02-08T08:37:23;1.60;99.90
11615;DHT22;5863;52.832;4.758;2023-02-08T08:39:51;1.70;99.90
11615;DHT22;5863;52.832;4.758;2023-02-08T08:42:18;1.80;99.90
11615;DHT22;5863;52.832;4.758;2023-02-08T08:44:45;2.00;99.90
11615;DHT22;5863;52.832;4.758;2023-02-08T08:47:12;2.00;99.90
11615;DHT22;5863;52.832;4.758;2023-02-08T08:49:39;2.10;99.90
11615;DHT22;5863;52.832;4.758;2023-02-08T08:52:07;2.10;99.90
11615;DHT22;5863;52.832;4.758;2023-02-08T08:54:34;2.20;99.90
11615;DHT22;5863;52.832;4.758;2023-02-08T08:57:03;2.30;99.90
11615;DHT22;5863;52.832;4.758;2023-02-08T08:59:30;2.40;99.90
11615;DHT22;5863;52.832;4.758;2023-02-08T09:01:56;2.50;99.90
11615;DHT22;5863;52.832;4.758;2023-02-08T09:04:23;2.60;99.90
11615;DHT22;5863;52.832;4.758;2023-02-08T09:06:52;2.70;99.90
11615;DHT22;5863;52.832;4.758;2023-02-08T09:09:19;2.90;99.90
11615;DHT22;5863;52.832;4.758;2023-02-08T09:11:47;3.00;99.90
11615;DHT22;5863;52.832;4.758;2023-02-08T09:14:16;3.00;99.90
11615;DHT22;5863;52.832;4.758;2023-02-08T09:16:43;2.90;99.90
11615;DHT22;5863;52.832;4.758;2023-02-08T09:19:13;3.00;99.90
11615;DHT22;5863;52.832;4.758;2023-02-08T09:21:40;3.10;99.90
11615;DHT22;5863;52.832;4.758;2023-02-08T09:24:07;3.10;99.90
11615;DHT22;5863;52.832;4.758;2023-02-08T09:26:34;3.20;99.90
11615;DHT22;5863;52.832;4.758;2023-02-08T09:29:01;3.20;99.90
11615;DHT22;5863;52.832;4.758;2023-02-08T09:31:30;3.30;99.90
11615;DHT22;5863;52.832;4.758;2023-02-08T09:33:59;3.30;99.90
11615;DHT22;5863;52.832;4.758;2023-02-08T09:36:28;3.40;99.90
11615;DHT22;5863;52.832;4.758;2023-02-08T09:38:58;3.50;99.90
11615;DHT22;5863;52.832;4.758;2023-02-08T09:41:35;3.50;99.90
11615;DHT22;5863;52.832;4.758;2023-02-08T09:44:14;3.50;99.90
11615;DHT22;5863;52.832;4.758;2023-02-08T09:46:49;3.60;99.90
11615;DHT22;5863;52.832;4.758;2023-02-08T09:49:20;3.60;99.90
11615;DHT22;5863;52.832;4.758;2023-02-08T09:51:51;3.70;99.90
11615;DHT22;5863;52.832;4.758;2023-02-08T09:54:22;3.70;99.90
11615;DHT22;5863;52.832;4.758;2023-02-08T09:56:52;3.80;99.90
11615;DHT22;5863;52.832;4.758;2023-02-08T09:59:22;3.90;99.90
11615;DHT22;5863;52.832;4.758;2023-02-08T10:01:55;4.00;99.90
11615;DHT22;5863;52.832;4.758;2023-02-08T10:04:29;4.00;99.90
11615;DHT22;5863;52.832;4.758;2023-02-08T10:06:57;4.10;99.90
11615;DHT22;5863;52.832;4.758;2023-02-08T10:09:25;4.20;99.90
11615;DHT22;5863;52.832;4.758;2023-02-08T10:12:00;4.20;99.90
11615;DHT22;5863;52.832;4.758;2023-02-08T10:14:42;4.40;99.90
11615;DHT22;5863;52.832;4.758;2023-02-08T10:17:35;4.40;99.90
11615;DHT22;5863;52.832;4.758;2023-02-08T10:20:16;4.50;99.90
11615;DHT22;5863;52.832;4.758;2023-02-08T10:22:49;4.60;99.90
11615;DHT22;5863;52.832;4.758;2023-02-08T10:25:36;4.50;99.90
11615;DHT22;5863;52.832;4.758;2023-02-08T10:28:29;4.60;99.90
11615;DHT22;5863;52.832;4.758;2023-02-08T10:31:04;4.70;99.90
11615;DHT22;5863;52.832;4.758;2023-02-08T10:33:39;4.80;99.90
11615;DHT22;5863;52.832;4.758;2023-02-08T10:36:12;4.90;99.90
11615;DHT22;5863;52.832;4.758;2023-02-08T10:38:40;5.00;99.90
11615;DHT22;5863;52.832;4.758;2023-02-08T10:41:09;5.00;99.90
11615;DHT22;5863;52.832;4.758;2023-02-08T10:43:42;5.10;99.90
11615;DHT22;5863;52.832;4.758;2023-02-08T10:46:15;5.20;99.90
11615;DHT22;5863;52.832;4.758;2023-02-08T10:48:52;5.20;99.90
11615;DHT22;5863;52.832;4.758;2023-02-08T10:51:24;5.40;99.90
11615;DHT22;5863;52.832;4.758;2023-02-08T10:53:52;5.40;99.90
11615;DHT22;5863;52.832;4.758;2023-02-08T10:56:36;5.50;99.90
11615;DHT22;5863;52.832;4.758;2023-02-08T10:59:13;5.60;99.90
11615;DHT22;5863;52.832;4.758;2023-02-08T11:01:41;5.70;99.90
11615;DHT22;5863;52.832;4.758;2023-02-08T11:04:11;5.70;99.90
11615;DHT22;5863;52.832;4.758;2023-02-08T11:06:40;5.90;99.90
11615;DHT22;5863;52.832;4.758;2023-02-08T11:09:20;6.00;99.90
11615;DHT22;5863;52.832;4.758;2023-02-08T11:11:48;6.00;99.90
11615;DHT22;5863;52.832;4.758;2023-02-08T11:14:18;6.00;99.90
11615;DHT22;5863;52.832;4.758;2023-02-08T11:16:50;6.10;99.90
11615;DHT22;5863;52.832;4.758;2023-02-08T11:19:26;6.20;99.90
11615;DHT22;5863;52.832;4.758;2023-02-08T11:21:55;6.20;99.90
11615;DHT22;5863;52.832;4.758;2023-02-08T11:24:26;6.30;99.90
11615;DHT22;5863;52.832;4.758;2023-02-08T11:26:55;6.30;99.90
11615;DHT22;5863;52.832;4.758;2023-02-08T11:29:23;6.50;99.90
11615;DHT22;5863;52.832;4.758;2023-02-08T11:31:57;6.50;99.90
11615;DHT22;5863;52.832;4.758;2023-02-08T11:34:29;6.60;99.90
11615;DHT22;5863;52.832;4.758;2023-02-08T11:36:58;6.60;99.90
11615;DHT22;5863;52.832;4.758;2023-02-08T11:39:27;6.70;99.90
11615;DHT22;5863;52.832;4.758;2023-02-08T11:41:57;6.70;99.90
11615;DHT22;5863;52.832;4.758;2023-02-08T11:44:29;6.80;99.90
11615;DHT22;5863;52.832;4.758;2023-02-08T11:46:58;6.80;99.90
11615;DHT22;5863;52.832;4.758;2023-02-08T11:49:34;6.80;99.90
11615;DHT22;5863;52.832;4.758;2023-02-08T11:52:03;6.90;99.90
11615;DHT22;5863;52.832;4.758;2023-02-08T11:54:35;6.90;99.90
11615;DHT22;5863;52.832;4.758;2023-02-08T11:57:11;7.00;99.90
11615;DHT22;5863;52.832;4.758;2023-02-08T11:59:38;7.00;99.90
11615;DHT22;5863;52.832;4.758;2023-02-08T12:02:29;7.20;99.90
11615;DHT22;5863;52.832;4.758;2023-02-08T12:05:09;7.10;99.90
11615;DHT22;5863;52.832;4.758;2023-02-08T12:07:47;7.20;99.90
11615;DHT22;5863;52.832;4.758;2023-02-08T12:10:30;7.20;99.90
11615;DHT22;5863;52.832;4.758;2023-02-08T12:13:27;7.20;99.90
11615;DHT22;5863;52.832;4.758;2023-02-08T12:16:08;7.30;99.90
11615;DHT22;5863;52.832;4.758;2023-02-08T12:19:06;7.40;99.90
11615;DHT22;5863;52.832;4.758;2023-02-08T12:21:42;7.40;99.90
11615;DHT22;5863;52.832;4.758;2023-02-08T12:24:15;7.40;99.90
11615;DHT22;5863;52.832;4.758;2023-02-08T12:27:02;7.50;99.90
11615;DHT22;5863;52.832;4.758;2023-02-08T12:29:40;7.50;99.90
11615;DHT22;5863;52.832;4.758;2023-02-08T12:32:23;7.50;99.90
11615;DHT22;5863;52.832;4.758;2023-02-08T12:35:17;7.50;99.90
11615;DHT22;5863;52.832;4.758;2023-02-08T12:37:52;7.60;99.90
11615;DHT22;5863;52.832;4.758;2023-02-08T12:40:44;7.60;99.90
11615;DHT22;5863;52.832;4.758;2023-02-08T12:43:26;7.60;99.90
11615;DHT22;5863;52.832;4.758;2023-02-08T12:46:14;7.70;99.90
11615;DHT22;5863;52.832;4.758;2023-02-08T12:48:55;7.70;99.90
11615;DHT22;5863;52.832;4.758;2023-02-08T12:51:32;7.80;99.90
11615;DHT22;5863;52.832;4.758;2023-02-08T12:54:07;7.80;99.90
11615;DHT22;5863;52.832;4.758;2023-02-08T12:56:40;7.70;99.90
11615;DHT22;5863;52.832;4.758;2023-02-08T12:59:18;7.70;99.90
11615;DHT22;5863;52.832;4.758;2023-02-08T13:01:50;7.80;99.90
11615;DHT22;5863;52.832;4.758;2023-02-08T13:04:24;7.80;99.90
11615;DHT22;5863;52.832;4.758;2023-02-08T13:06:55;7.80;99.90
11615;DHT22;5863;52.832;4.758;2023-02-08T13:09:37;7.90;99.90
11615;DHT22;5863;52.832;4.758;2023-02-08T13:12:10;8.00;99.90
11615;DHT22;5863;52.832;4.758;2023-02-08T13:14:44;8.00;99.90
11615;DHT22;5863;52.832;4.758;2023-02-08T13:17:15;8.10;99.90
11615;DHT22;5863;52.832;4.758;2023-02-08T13:19:52;8.00;99.90
11615;DHT22;5863;52.832;4.758;2023-02-08T13:22:20;8.10;99.90
11615;DHT22;5863;52.832;4.758;2023-02-08T13:24:50;8.20;99.90
11615;DHT22;5863;52.832;4.758;2023-02-08T13:27:19;8.20;99.90
11615;DHT22;5863;52.832;4.758;2023-02-08T13:29:48;8.20;99.90
11615;DHT22;5863;52.832;4.758;2023-02-08T13:32:19;8.20;99.90
11615;DHT22;5863;52.832;4.758;2023-02-08T13:34:50;8.20;99.90
11615;DHT22;5863;52.832;4.758;2023-02-08T13:37:20;8.20;99.90
11615;DHT22;5863;52.832;4.758;2023-02-08T13:39:50;8.20;99.90
11615;DHT22;5863;52.832;4.758;2023-02-08T13:42:27;8.10;99.90
11615;DHT22;5863;52.832;4.758;2023-02-08T13:44:56;8.10;99.90
11615;DHT22;5863;52.832;4.758;2023-02-08T13:47:26;8.20;99.90
11615;DHT22;5863;52.832;4.758;2023-02-08T13:49:56;8.20;99.90
11615;DHT22;5863;52.832;4.758;2023-02-08T13:52:49;8.20;99.90
11615;DHT22;5863;52.832;4.758;2023-02-08T14:01:21;8.10;99.90
11615;DHT22;5863;52.832;4.758;2023-02-08T14:04:16;8.10;99.90
11615;DHT22;5863;52.832;4.758;2023-02-08T14:06:50;8.20;99.90
11615;DHT22;5863;52.832;4.758;2023-02-08T14:09:22;8.10;99.90
11615;DHT22;5863;52.832;4.758;2023-02-08T14:11:53;8.10;99.90
11615;DHT22;5863;52.832;4.758;2023-02-08T14:14:25;8.10;99.90
11615;DHT22;5863;52.832;4.758;2023-02-08T14:17:15;8.10;99.90
11615;DHT22;5863;52.832;4.758;2023-02-08T14:19:44;8.10;99.90
11615;DHT22;5863;52.832;4.758;2023-02-08T14:22:16;8.10;99.90
11615;DHT22;5863;52.832;4.758;2023-02-08T14:24:46;8.00;99.90
11615;DHT22;5863;52.832;4.758;2023-02-08T14:27:21;8.10;99.90
11615;DHT22;5863;52.832;4.758;2023-02-08T14:29:58;8.00;99.90
11615;DHT22;5863;52.832;4.758;2023-02-08T14:32:27;8.00;99.90
11615;DHT22;5863;52.832;4.758;2023-02-08T14:35:04;7.90;99.90
11615;DHT22;5863;52.832;4.758;2023-02-08T14:37:33;7.90;99.90
11615;DHT22;5863;52.832;4.758;2023-02-08T14:40:46;7.90;99.90
11615;DHT22;5863;52.832;4.758;2023-02-08T14:43:33;8.00;99.90
11615;DHT22;5863;52.832;4.758;2023-02-08T14:49:09;7.90;99.90
11615;DHT22;5863;52.832;4.758;2023-02-08T14:51:39;7.90;99.90
11615;DHT22;5863;52.832;4.758;2023-02-08T14:54:16;7.90;99.50
11615;DHT22;5863;52.832;4.758;2023-02-08T14:56:50;7.90;99.60
11615;DHT22;5863;52.832;4.758;2023-02-08T14:59:19;7.90;99.50
11615;DHT22;5863;52.832;4.758;2023-02-08T15:01:54;7.90;99.40
11615;DHT22;5863;52.832;4.758;2023-02-08T15:04:23;7.90;98.70
11615;DHT22;5863;52.832;4.758;2023-02-08T15:06:59;7.80;98.90
11615;DHT22;5863;52.832;4.758;2023-02-08T15:09:35;7.80;99.70
11615;DHT22;5863;52.832;4.758;2023-02-08T15:12:04;7.80;99.80
11615;DHT22;5863;52.832;4.758;2023-02-08T15:14:34;7.80;99.50
11615;DHT22;5863;52.832;4.758;2023-02-08T15:17:02;7.70;99.90
11615;DHT22;5863;52.832;4.758;2023-02-08T15:19:32;7.70;99.90
11615;DHT22;5863;52.832;4.758;2023-02-08T15:22:16;7.70;99.90
11615;DHT22;5863;52.832;4.758;2023-02-08T15:24:50;7.70;99.90
11615;DHT22;5863;52.832;4.758;2023-02-08T15:27:21;7.70;99.90
11615;DHT22;5863;52.832;4.758;2023-02-08T15:29:48;7.70;99.90
11615;DHT22;5863;52.832;4.758;2023-02-08T15:32:17;7.70;99.70
11615;DHT22;5863;52.832;4.758;2023-02-08T15:34:49;7.70;99.70
11615;DHT22;5863;52.832;4.758;2023-02-08T15:37:18;7.70;99.80
11615;DHT22;5863;52.832;4.758;2023-02-08T15:39:48;7.70;99.90
11615;DHT22;5863;52.832;4.758;2023-02-08T15:42:17;7.60;99.90
11615;DHT22;5863;52.832;4.758;2023-02-08T15:44:44;7.60;99.70
11615;DHT22;5863;52.832;4.758;2023-02-08T15:47:16;7.60;99.80
11615;DHT22;5863;52.832;4.758;2023-02-08T15:49:48;7.60;99.70
11615;DHT22;5863;52.832;4.758;2023-02-08T15:52:20;7.60;99.60
11615;DHT22;5863;52.832;4.758;2023-02-08T15:54:49;7.50;99.20
11615;DHT22;5863;52.832;4.758;2023-02-08T15:57:30;7.40;99.30
11615;DHT22;5863;52.832;4.758;2023-02-08T16:00:00;7.30;99.60
11615;DHT22;5863;52.832;4.758;2023-02-08T16:02:29;7.30;99.50
11615;DHT22;5863;52.832;4.758;2023-02-08T16:04:59;7.20;99.50
11615;DHT22;5863;52.832;4.758;2023-02-08T16:07:27;7.10;99.70
11615;DHT22;5863;52.832;4.758;2023-02-08T16:09:57;7.10;99.70
11615;DHT22;5863;52.832;4.758;2023-02-08T16:12:25;7.00;99.80
11615;DHT22;5863;52.832;4.758;2023-02-08T16:14:53;7.00;99.80
11615;DHT22;5863;52.832;4.758;2023-02-08T16:17:34;7.00;99.90
11615;DHT22;5863;52.832;4.758;2023-02-08T16:20:22;6.90;99.60
11615;DHT22;5863;52.832;4.758;2023-02-08T16:22:54;6.80;99.80
11615;DHT22;5863;52.832;4.758;2023-02-08T16:25:22;6.80;99.90
11615;DHT22;5863;52.832;4.758;2023-02-08T16:27:49;6.60;99.90
11615;DHT22;5863;52.832;4.758;2023-02-08T16:30:18;6.60;99.90
11615;DHT22;5863;52.832;4.758;2023-02-08T16:32:46;6.50;99.90
11615;DHT22;5863;52.832;4.758;2023-02-08T16:35:14;6.40;99.90
11615;DHT22;5863;52.832;4.758;2023-02-08T16:37:52;6.40;99.90
11615;DHT22;5863;52.832;4.758;2023-02-08T16:40:39;6.30;99.90
11615;DHT22;5863;52.832;4.758;2023-02-08T16:43:15;6.10;99.90